sensor_id;sensor_type;location;lat;lon;timestamp;P1;durP1;ratioP1;P2;durP2;ratioP2
54201;SDS011;40108;53.152;5.844;2023-02-21T00:00:24;29.90;;;10.10;;
54201;SDS011;40108;53.152;5.844;2023-02-21T00:03:08;31.45;;;9.80;;
54201;SDS011;40108;53.152;5.844;2023-02-21T00:05:55;27.02;;;10.32;;
54201;SDS011;40108;53.152;5.844;2023-02-21T00:08:39;28.40;;;9.65;;
54201;SDS011;40108;53.152;5.844;2023-02-21T00:11:23;24.67;;;9.00;;
54201;SDS011;40108;53.152;5.844;2023-02-21T00:14:07;31.45;;;9.35;;
54201;SDS011;40108;53.152;5.844;2023-02-21T00:16:52;30.00;;;9.70;;
54201;SDS011;40108;53.152;5.844;2023-02-21T00:19:36;28.00;;;9.40;;
54201;SDS011;40108;53.152;5.844;2023-02-21T00:22:20;26.52;;;8.63;;
54201;SDS011;40108;53.152;5.844;2023-02-21T00:25:04;22.02;;;8.93;;
54201;SDS011;40108;53.152;5.844;2023-02-21T00:27:49;24.42;;;8.63;;
54201;SDS011;40108;53.152;5.844;2023-02-21T00:30:33;28.50;;;9.75;;
54201;SDS011;40108;53.152;5.844;2023-02-21T00:33:17;22.55;;;9.23;;
54201;SDS011;40108;53.152;5.844;2023-02-21T00:36:01;23.10;;;8.52;;
54201;SDS011;40108;53.152;5.844;2023-02-21T00:38:46;27.27;;;9.52;;
54201;SDS011;40108;53.152;5.844;2023-02-21T00:41:30;26.75;;;8.68;;
54201;SDS011;40108;53.152;5.844;2023-02-21T00:44:14;26.52;;;9.30;;
54201;SDS011;40108;53.152;5.844;2023-02-21T00:46:59;29.50;;;9.73;;
54201;SDS011;40108;53.152;5.844;2023-02-21T00:49:43;31.83;;;9.10;;
54201;SDS011;40108;53.152;5.844;2023-02-21T00:52:27;27.83;;;9.77;;
54201;SDS011;40108;53.152;5.844;2023-02-21T00:55:12;26.95;;;11.02;;
54201;SDS011;40108;53.152;5.844;2023-02-21T00:57:56;30.17;;;11.20;;
54201;SDS011;40108;53.152;5.844;2023-02-21T01:00:40;34.25;;;12.07;;
54201;SDS011;40108;53.152;5.844;2023-02-21T01:03:27;34.22;;;12.45;;
54201;SDS011;40108;53.152;5.844;2023-02-21T01:06:11;31.15;;;12.95;;
54201;SDS011;40108;53.152;5.844;2023-02-21T01:08:55;25.80;;;12.70;;
54201;SDS011;40108;53.152;5.844;2023-02-21T01:11:40;28.35;;;12.43;;
54201;SDS011;40108;53.152;5.844;2023-02-21T01:14:24;34.50;;;13.20;;
54201;SDS011;40108;53.152;5.844;2023-02-21T01:17:08;33.17;;;12.98;;
54201;SDS011;40108;53.152;5.844;2023-02-21T01:19:53;28.63;;;12.80;;
54201;SDS011;40108;53.152;5.844;2023-02-21T01:22:37;28.08;;;13.25;;
54201;SDS011;40108;53.152;5.844;2023-02-21T01:25:21;35.95;;;12.75;;
54201;SDS011;40108;53.152;5.844;2023-02-21T01:28:05;29.40;;;12.43;;
54201;SDS011;40108;53.152;5.844;2023-02-21T01:30:49;38.92;;;13.77;;
54201;SDS011;40108;53.152;5.844;2023-02-21T01:33:38;33.83;;;13.20;;
54201;SDS011;40108;53.152;5.844;2023-02-21T01:36:23;31.23;;;12.35;;
54201;SDS011;40108;53.152;5.844;2023-02-21T01:39:08;34.28;;;13.60;;
54201;SDS011;40108;53.152;5.844;2023-02-21T01:41:53;32.40;;;13.32;;
54201;SDS011;40108;53.152;5.844;2023-02-21T01:44:44;34.28;;;13.48;;
54201;SDS011;40108;53.152;5.844;2023-02-21T01:47:29;32.37;;;13.30;;
54201;SDS011;40108;53.152;5.844;2023-02-21T01:50:18;39.40;;;13.43;;
54201;SDS011;40108;53.152;5.844;2023-02-21T01:53:12;30.38;;;13.60;;
54201;SDS011;40108;53.152;5.844;2023-02-21T01:56:00;32.22;;;13.77;;
54201;SDS011;40108;53.152;5.844;2023-02-21T01:58:46;35.20;;;14.85;;
54201;SDS011;40108;53.152;5.844;2023-02-21T02:01:34;37.45;;;14.05;;
54201;SDS011;40108;53.152;5.844;2023-02-21T02:04:23;37.63;;;14.17;;
54201;SDS011;40108;53.152;5.844;2023-02-21T02:07:08;31.33;;;14.18;;
54201;SDS011;40108;53.152;5.844;2023-02-21T02:09:52;39.38;;;15.52;;
54201;SDS011;40108;53.152;5.844;2023-02-21T02:12:44;39.08;;;15.45;;
54201;SDS011;40108;53.152;5.844;2023-02-21T02:15:30;36.72;;;14.90;;
54201;SDS011;40108;53.152;5.844;2023-02-21T02:21:05;33.63;;;15.05;;
54201;SDS011;40108;53.152;5.844;2023-02-21T02:40:34;36.08;;;12.98;;
54201;SDS011;40108;53.152;5.844;2023-02-21T02:46:09;29.45;;;13.15;;
54201;SDS011;40108;53.152;5.844;2023-02-21T02:48:40;36.00;;;14.55;;
54201;SDS011;40108;53.152;5.844;2023-02-21T02:51:11;38.30;;;15.15;;
54201;SDS011;40108;53.152;5.844;2023-02-21T02:53:39;37.08;;;16.38;;
54201;SDS011;40108;53.152;5.844;2023-02-21T02:56:06;32.78;;;15.77;;
54201;SDS011;40108;53.152;5.844;2023-02-21T02:58:47;36.30;;;17.00;;
54201;SDS011;40108;53.152;5.844;2023-02-21T03:04:29;39.33;;;17.05;;
54201;SDS011;40108;53.152;5.844;2023-02-21T03:07:24;40.47;;;17.55;;
54201;SDS011;40108;53.152;5.844;2023-02-21T03:18:01;39.50;;;19.33;;
54201;SDS011;40108;53.152;5.844;2023-02-21T03:20:34;39.22;;;18.70;;
54201;SDS011;40108;53.152;5.844;2023-02-21T03:23:02;37.83;;;19.50;;
54201;SDS011;40108;53.152;5.844;2023-02-21T03:25:29;41.03;;;19.15;;
54201;SDS011;40108;53.152;5.844;2023-02-21T03:27:58;41.05;;;19.35;;
54201;SDS011;40108;53.152;5.844;2023-02-21T03:30:25;37.67;;;19.52;;
54201;SDS011;40108;53.152;5.844;2023-02-21T03:32:53;39.45;;;20.15;;
54201;SDS011;40108;53.152;5.844;2023-02-21T03:35:20;43.00;;;21.27;;
54201;SDS011;40108;53.152;5.844;2023-02-21T03:37:47;41.97;;;21.75;;
54201;SDS011;40108;53.152;5.844;2023-02-21T03:40:30;48.50;;;22.73;;
54201;SDS011;40108;53.152;5.844;2023-02-21T03:42:59;44.47;;;21.52;;
54201;SDS011;40108;53.152;5.844;2023-02-21T03:45:26;46.47;;;22.17;;
54201;SDS011;40108;53.152;5.844;2023-02-21T03:47:52;42.97;;;21.45;;
54201;SDS011;40108;53.152;5.844;2023-02-21T03:50:17;43.63;;;22.33;;
54201;SDS011;40108;53.152;5.844;2023-02-21T03:52:43;49.22;;;23.17;;
54201;SDS011;40108;53.152;5.844;2023-02-21T03:55:09;45.60;;;23.25;;
54201;SDS011;40108;53.152;5.844;2023-02-21T03:57:35;40.80;;;21.88;;
54201;SDS011;40108;53.152;5.844;2023-02-21T04:00:00;44.88;;;23.38;;
54201;SDS011;40108;53.152;5.844;2023-02-21T04:02:26;45.42;;;22.42;;
54201;SDS011;40108;53.152;5.844;2023-02-21T04:04:52;46.90;;;21.92;;
54201;SDS011;40108;53.152;5.844;2023-02-21T04:07:18;47.03;;;22.92;;
54201;SDS011;40108;53.152;5.844;2023-02-21T04:09:45;47.85;;;21.92;;
54201;SDS011;40108;53.152;5.844;2023-02-21T04:12:12;51.10;;;21.63;;
54201;SDS011;40108;53.152;5.844;2023-02-21T04:14:38;40.00;;;22.15;;
54201;SDS011;40108;53.152;5.844;2023-02-21T04:17:04;43.95;;;21.77;;
54201;SDS011;40108;53.152;5.844;2023-02-21T04:19:30;48.78;;;21.23;;
54201;SDS011;40108;53.152;5.844;2023-02-21T04:21:56;44.67;;;21.33;;
54201;SDS011;40108;53.152;5.844;2023-02-21T04:24:22;45.90;;;21.38;;
54201;SDS011;40108;53.152;5.844;2023-02-21T04:26:48;48.35;;;22.05;;
54201;SDS011;40108;53.152;5.844;2023-02-21T04:29:14;40.90;;;21.42;;
54201;SDS011;40108;53.152;5.844;2023-02-21T04:31:39;48.00;;;23.05;;
54201;SDS011;40108;53.152;5.844;2023-02-21T04:34:05;46.92;;;21.83;;
54201;SDS011;40108;53.152;5.844;2023-02-21T04:36:31;43.95;;;21.52;;
54201;SDS011;40108;53.152;5.844;2023-02-21T04:39:02;49.17;;;23.75;;
54201;SDS011;40108;53.152;5.844;2023-02-21T04:41:28;49.28;;;21.85;;
54201;SDS011;40108;53.152;5.844;2023-02-21T04:43:57;46.80;;;22.33;;
54201;SDS011;40108;53.152;5.844;2023-02-21T04:46:23;45.42;;;22.13;;
54201;SDS011;40108;53.152;5.844;2023-02-21T04:48:49;46.72;;;22.55;;
54201;SDS011;40108;53.152;5.844;2023-02-21T04:51:17;48.42;;;21.70;;
54201;SDS011;40108;53.152;5.844;2023-02-21T04:53:45;48.92;;;22.48;;
54201;SDS011;40108;53.152;5.844;2023-02-21T04:56:12;46.95;;;22.42;;
54201;SDS011;40108;53.152;5.844;2023-02-21T04:58:38;47.50;;;21.77;;
54201;SDS011;40108;53.152;5.844;2023-02-21T05:01:05;44.80;;;22.33;;
54201;SDS011;40108;53.152;5.844;2023-02-21T05:03:31;57.15;;;22.70;;
54201;SDS011;40108;53.152;5.844;2023-02-21T05:05:56;46.55;;;22.67;;
54201;SDS011;40108;53.152;5.844;2023-02-21T05:08:22;43.03;;;22.05;;
54201;SDS011;40108;53.152;5.844;2023-02-21T05:10:49;40.85;;;21.92;;
54201;SDS011;40108;53.152;5.844;2023-02-21T05:13:14;41.63;;;22.23;;
54201;SDS011;40108;53.152;5.844;2023-02-21T05:15:41;45.03;;;23.08;;
54201;SDS011;40108;53.152;5.844;2023-02-21T05:18:07;48.97;;;22.83;;
54201;SDS011;40108;53.152;5.844;2023-02-21T05:20:33;48.60;;;22.70;;
54201;SDS011;40108;53.152;5.844;2023-02-21T05:22:58;43.72;;;22.67;;
54201;SDS011;40108;53.152;5.844;2023-02-21T05:25:24;52.55;;;23.15;;
54201;SDS011;40108;53.152;5.844;2023-02-21T05:27:50;48.55;;;23.52;;
54201;SDS011;40108;53.152;5.844;2023-02-21T05:30:17;47.38;;;22.73;;
54201;SDS011;40108;53.152;5.844;2023-02-21T05:32:45;51.55;;;22.52;;
54201;SDS011;40108;53.152;5.844;2023-02-21T05:35:12;43.95;;;22.90;;
54201;SDS011;40108;53.152;5.844;2023-02-21T05:37:39;48.72;;;23.33;;
54201;SDS011;40108;53.152;5.844;2023-02-21T05:40:05;44.97;;;22.52;;
54201;SDS011;40108;53.152;5.844;2023-02-21T05:42:32;41.80;;;22.75;;
54201;SDS011;40108;53.152;5.844;2023-02-21T05:45:00;45.05;;;23.50;;
54201;SDS011;40108;53.152;5.844;2023-02-21T05:47:26;45.03;;;21.90;;
54201;SDS011;40108;53.152;5.844;2023-02-21T05:49:52;50.20;;;24.83;;
54201;SDS011;40108;53.152;5.844;2023-02-21T05:52:20;44.13;;;22.50;;
54201;SDS011;40108;53.152;5.844;2023-02-21T05:54:46;54.85;;;24.05;;
54201;SDS011;40108;53.152;5.844;2023-02-21T05:57:12;48.67;;;23.67;;
54201;SDS011;40108;53.152;5.844;2023-02-21T05:59:37;49.17;;;23.35;;
54201;SDS011;40108;53.152;5.844;2023-02-21T06:02:03;48.38;;;23.30;;
54201;SDS011;40108;53.152;5.844;2023-02-21T06:04:29;57.03;;;24.50;;
54201;SDS011;40108;53.152;5.844;2023-02-21T06:06:58;46.97;;;24.35;;
54201;SDS011;40108;53.152;5.844;2023-02-21T06:09:24;51.70;;;24.38;;
54201;SDS011;40108;53.152;5.844;2023-02-21T06:11:49;46.15;;;24.67;;
54201;SDS011;40108;53.152;5.844;2023-02-21T06:14:19;51.45;;;25.20;;
54201;SDS011;40108;53.152;5.844;2023-02-21T06:16:45;45.70;;;23.05;;
54201;SDS011;40108;53.152;5.844;2023-02-21T06:19:12;45.20;;;24.08;;
54201;SDS011;40108;53.152;5.844;2023-02-21T06:21:40;52.35;;;24.40;;
54201;SDS011;40108;53.152;5.844;2023-02-21T06:24:07;49.95;;;24.23;;
54201;SDS011;40108;53.152;5.844;2023-02-21T06:26:34;49.58;;;25.10;;
54201;SDS011;40108;53.152;5.844;2023-02-21T06:29:04;51.97;;;24.83;;
54201;SDS011;40108;53.152;5.844;2023-02-21T06:31:59;52.10;;;24.88;;
54201;SDS011;40108;53.152;5.844;2023-02-21T06:34:26;49.55;;;24.27;;
54201;SDS011;40108;53.152;5.844;2023-02-21T06:36:57;47.63;;;24.75;;
54201;SDS011;40108;53.152;5.844;2023-02-21T06:42:35;48.03;;;24.25;;
54201;SDS011;40108;53.152;5.844;2023-02-21T06:45:01;48.30;;;23.23;;
54201;SDS011;40108;53.152;5.844;2023-02-21T06:47:30;51.85;;;24.38;;
54201;SDS011;40108;53.152;5.844;2023-02-21T06:49:56;48.47;;;23.73;;
54201;SDS011;40108;53.152;5.844;2023-02-21T06:52:24;45.88;;;24.25;;
54201;SDS011;40108;53.152;5.844;2023-02-21T06:54:53;40.97;;;22.88;;
54201;SDS011;40108;53.152;5.844;2023-02-21T06:57:19;49.58;;;24.15;;
54201;SDS011;40108;53.152;5.844;2023-02-21T06:59:44;52.08;;;24.38;;
54201;SDS011;40108;53.152;5.844;2023-02-21T07:02:14;44.72;;;23.83;;
54201;SDS011;40108;53.152;5.844;2023-02-21T07:07:09;47.25;;;22.73;;
54201;SDS011;40108;53.152;5.844;2023-02-21T07:09:37;50.17;;;25.20;;
54201;SDS011;40108;53.152;5.844;2023-02-21T07:12:03;50.67;;;25.13;;
54201;SDS011;40108;53.152;5.844;2023-02-21T07:14:28;54.42;;;26.77;;
54201;SDS011;40108;53.152;5.844;2023-02-21T07:16:54;52.17;;;26.42;;
54201;SDS011;40108;53.152;5.844;2023-02-21T07:19:20;52.00;;;27.05;;
54201;SDS011;40108;53.152;5.844;2023-02-21T07:21:46;52.58;;;26.27;;
54201;SDS011;40108;53.152;5.844;2023-02-21T07:24:12;60.63;;;28.05;;
54201;SDS011;40108;53.152;5.844;2023-02-21T07:26:38;53.67;;;27.60;;
54201;SDS011;40108;53.152;5.844;2023-02-21T07:29:04;56.13;;;26.75;;
54201;SDS011;40108;53.152;5.844;2023-02-21T07:31:30;54.47;;;26.70;;
54201;SDS011;40108;53.152;5.844;2023-02-21T07:33:56;55.80;;;26.77;;
54201;SDS011;40108;53.152;5.844;2023-02-21T07:36:22;56.42;;;27.33;;
54201;SDS011;40108;53.152;5.844;2023-02-21T07:38:50;56.78;;;27.95;;
54201;SDS011;40108;53.152;5.844;2023-02-21T07:41:16;52.42;;;27.02;;
54201;SDS011;40108;53.152;5.844;2023-02-21T07:43:42;53.72;;;26.38;;
54201;SDS011;40108;53.152;5.844;2023-02-21T07:46:09;51.17;;;26.23;;
54201;SDS011;40108;53.152;5.844;2023-02-21T07:48:39;53.25;;;26.73;;
54201;SDS011;40108;53.152;5.844;2023-02-21T07:51:05;58.75;;;26.70;;
54201;SDS011;40108;53.152;5.844;2023-02-21T07:53:32;58.15;;;27.48;;
54201;SDS011;40108;53.152;5.844;2023-02-21T07:55:58;53.58;;;27.92;;
54201;SDS011;40108;53.152;5.844;2023-02-21T07:58:24;54.47;;;26.85;;
54201;SDS011;40108;53.152;5.844;2023-02-21T08:00:50;52.40;;;26.23;;
54201;SDS011;40108;53.152;5.844;2023-02-21T08:03:16;52.83;;;26.88;;
54201;SDS011;40108;53.152;5.844;2023-02-21T08:05:42;51.17;;;27.13;;
54201;SDS011;40108;53.152;5.844;2023-02-21T08:08:10;52.55;;;27.23;;
54201;SDS011;40108;53.152;5.844;2023-02-21T08:10:36;51.10;;;27.33;;
54201;SDS011;40108;53.152;5.844;2023-02-21T08:13:02;55.03;;;26.67;;
54201;SDS011;40108;53.152;5.844;2023-02-21T08:15:31;48.83;;;26.70;;
54201;SDS011;40108;53.152;5.844;2023-02-21T08:17:56;48.97;;;27.45;;
54201;SDS011;40108;53.152;5.844;2023-02-21T08:20:22;49.67;;;25.63;;
54201;SDS011;40108;53.152;5.844;2023-02-21T08:22:48;51.60;;;26.80;;
54201;SDS011;40108;53.152;5.844;2023-02-21T08:25:14;52.03;;;27.20;;
54201;SDS011;40108;53.152;5.844;2023-02-21T08:27:41;47.42;;;26.98;;
54201;SDS011;40108;53.152;5.844;2023-02-21T08:30:07;44.80;;;26.30;;
54201;SDS011;40108;53.152;5.844;2023-02-21T08:32:38;50.03;;;26.30;;
54201;SDS011;40108;53.152;5.844;2023-02-21T08:35:04;48.00;;;26.02;;
54201;SDS011;40108;53.152;5.844;2023-02-21T08:37:33;45.67;;;26.52;;
54201;SDS011;40108;53.152;5.844;2023-02-21T08:40:00;47.70;;;26.45;;
54201;SDS011;40108;53.152;5.844;2023-02-21T08:42:28;47.53;;;25.50;;
54201;SDS011;40108;53.152;5.844;2023-02-21T08:44:54;47.58;;;25.52;;
54201;SDS011;40108;53.152;5.844;2023-02-21T08:47:20;41.83;;;25.92;;
54201;SDS011;40108;53.152;5.844;2023-02-21T08:49:46;42.63;;;24.85;;
54201;SDS011;40108;53.152;5.844;2023-02-21T08:52:13;45.80;;;25.80;;
54201;SDS011;40108;53.152;5.844;2023-02-21T08:54:41;42.75;;;24.95;;
54201;SDS011;40108;53.152;5.844;2023-02-21T08:57:09;37.92;;;25.45;;
54201;SDS011;40108;53.152;5.844;2023-02-21T08:59:38;41.83;;;25.27;;
54201;SDS011;40108;53.152;5.844;2023-02-21T09:02:15;43.75;;;23.85;;
54201;SDS011;40108;53.152;5.844;2023-02-21T09:04:43;39.72;;;23.73;;
54201;SDS011;40108;53.152;5.844;2023-02-21T09:07:13;45.97;;;24.88;;
54201;SDS011;40108;53.152;5.844;2023-02-21T09:09:40;41.83;;;24.17;;
54201;SDS011;40108;53.152;5.844;2023-02-21T09:12:07;43.92;;;24.77;;
54201;SDS011;40108;53.152;5.844;2023-02-21T09:14:33;38.20;;;23.20;;
54201;SDS011;40108;53.152;5.844;2023-02-21T09:17:00;39.45;;;23.98;;
54201;SDS011;40108;53.152;5.844;2023-02-21T09:19:27;39.90;;;24.73;;
54201;SDS011;40108;53.152;5.844;2023-02-21T09:21:53;38.83;;;23.25;;
54201;SDS011;40108;53.152;5.844;2023-02-21T09:24:22;37.60;;;22.65;;
54201;SDS011;40108;53.152;5.844;2023-02-21T09:26:52;39.85;;;22.50;;
54201;SDS011;40108;53.152;5.844;2023-02-21T09:29:29;37.05;;;21.90;;
54201;SDS011;40108;53.152;5.844;2023-02-21T09:31:56;39.25;;;22.15;;
54201;SDS011;40108;53.152;5.844;2023-02-21T09:34:22;40.85;;;22.60;;
54201;SDS011;40108;53.152;5.844;2023-02-21T09:36:48;38.47;;;23.02;;
54201;SDS011;40108;53.152;5.844;2023-02-21T09:39:17;39.78;;;22.38;;
54201;SDS011;40108;53.152;5.844;2023-02-21T09:41:43;35.35;;;21.67;;
54201;SDS011;40108;53.152;5.844;2023-02-21T09:44:11;33.42;;;21.75;;
54201;SDS011;40108;53.152;5.844;2023-02-21T09:46:45;34.53;;;21.60;;
54201;SDS011;40108;53.152;5.844;2023-02-21T09:49:23;32.97;;;21.80;;
54201;SDS011;40108;53.152;5.844;2023-02-21T09:51:54;34.40;;;21.33;;
54201;SDS011;40108;53.152;5.844;2023-02-21T09:54:32;36.67;;;21.90;;
54201;SDS011;40108;53.152;5.844;2023-02-21T09:57:01;33.92;;;22.63;;
54201;SDS011;40108;53.152;5.844;2023-02-21T09:59:29;34.15;;;21.65;;
54201;SDS011;40108;53.152;5.844;2023-02-21T10:07:35;33.13;;;20.63;;
54201;SDS011;40108;53.152;5.844;2023-02-21T10:10:13;37.53;;;20.63;;
54201;SDS011;40108;53.152;5.844;2023-02-21T10:15:40;32.03;;;20.63;;
54201;SDS011;40108;53.152;5.844;2023-02-21T10:20:56;35.13;;;19.98;;
54201;SDS011;40108;53.152;5.844;2023-02-21T10:23:30;31.65;;;19.92;;
54201;SDS011;40108;53.152;5.844;2023-02-21T10:26:05;32.65;;;20.27;;
54201;SDS011;40108;53.152;5.844;2023-02-21T10:28:34;28.90;;;18.92;;
54201;SDS011;40108;53.152;5.844;2023-02-21T10:31:45;32.53;;;18.73;;
54201;SDS011;40108;53.152;5.844;2023-02-21T10:33:57;28.85;;;17.88;;
54201;SDS011;40108;53.152;5.844;2023-02-21T10:36:26;29.30;;;19.60;;
54201;SDS011;40108;53.152;5.844;2023-02-21T10:38:54;28.48;;;19.23;;
54201;SDS011;40108;53.152;5.844;2023-02-21T10:41:34;30.35;;;19.38;;
54201;SDS011;40108;53.152;5.844;2023-02-21T10:44:06;29.42;;;18.85;;
54201;SDS011;40108;53.152;5.844;2023-02-21T10:46:44;25.67;;;19.05;;
54201;SDS011;40108;53.152;5.844;2023-02-21T10:49:19;21.80;;;17.73;;
54201;SDS011;40108;53.152;5.844;2023-02-21T10:52:05;28.05;;;19.10;;
54201;SDS011;40108;53.152;5.844;2023-02-21T10:54:33;27.52;;;18.17;;
54201;SDS011;40108;53.152;5.844;2023-02-21T10:56:59;26.10;;;17.88;;
54201;SDS011;40108;53.152;5.844;2023-02-21T10:59:44;26.98;;;18.60;;
54201;SDS011;40108;53.152;5.844;2023-02-21T11:02:33;28.10;;;17.52;;
54201;SDS011;40108;53.152;5.844;2023-02-21T11:05:15;29.20;;;18.13;;
54201;SDS011;40108;53.152;5.844;2023-02-21T11:10:37;27.70;;;19.02;;
54201;SDS011;40108;53.152;5.844;2023-02-21T11:15:44;30.35;;;17.83;;
54201;SDS011;40108;53.152;5.844;2023-02-21T11:18:12;31.98;;;18.85;;
54201;SDS011;40108;53.152;5.844;2023-02-21T11:20:40;28.33;;;17.90;;
54201;SDS011;40108;53.152;5.844;2023-02-21T11:25:55;28.35;;;17.30;;
54201;SDS011;40108;53.152;5.844;2023-02-21T11:28:40;28.63;;;17.13;;
54201;SDS011;40108;53.152;5.844;2023-02-21T11:34:04;29.65;;;17.75;;
54201;SDS011;40108;53.152;5.844;2023-02-21T11:36:37;26.17;;;17.10;;
54201;SDS011;40108;53.152;5.844;2023-02-21T11:39:18;23.58;;;16.13;;
54201;SDS011;40108;53.152;5.844;2023-02-21T11:44:35;23.00;;;16.45;;
54201;SDS011;40108;53.152;5.844;2023-02-21T11:49:36;26.80;;;15.77;;
54201;SDS011;40108;53.152;5.844;2023-02-21T11:52:28;23.00;;;15.90;;
54201;SDS011;40108;53.152;5.844;2023-02-21T11:55:03;23.85;;;15.10;;
54201;SDS011;40108;53.152;5.844;2023-02-21T11:58:00;22.40;;;15.90;;
54201;SDS011;40108;53.152;5.844;2023-02-21T12:06:29;21.42;;;15.57;;
54201;SDS011;40108;53.152;5.844;2023-02-21T12:11:52;22.77;;;15.38;;
54201;SDS011;40108;53.152;5.844;2023-02-21T12:28:53;25.95;;;17.25;;
54201;SDS011;40108;53.152;5.844;2023-02-21T12:36:45;23.88;;;16.67;;
54201;SDS011;40108;53.152;5.844;2023-02-21T12:47:32;25.80;;;16.88;;
54201;SDS011;40108;53.152;5.844;2023-02-21T12:50:20;23.67;;;16.63;;
54201;SDS011;40108;53.152;5.844;2023-02-21T12:55:41;23.92;;;15.90;;
54201;SDS011;40108;53.152;5.844;2023-02-21T12:58:25;24.70;;;16.38;;
54201;SDS011;40108;53.152;5.844;2023-02-21T13:01:04;26.13;;;16.25;;
54201;SDS011;40108;53.152;5.844;2023-02-21T13:06:51;21.40;;;15.98;;
54201;SDS011;40108;53.152;5.844;2023-02-21T13:09:52;21.80;;;16.55;;
54201;SDS011;40108;53.152;5.844;2023-02-21T13:12:32;20.25;;;17.23;;
54201;SDS011;40108;53.152;5.844;2023-02-21T13:15:18;21.75;;;16.40;;
54201;SDS011;40108;53.152;5.844;2023-02-21T13:17:57;23.85;;;16.95;;
54201;SDS011;40108;53.152;5.844;2023-02-21T13:20:26;21.58;;;17.38;;
54201;SDS011;40108;53.152;5.844;2023-02-21T13:28:43;20.92;;;17.02;;
54201;SDS011;40108;53.152;5.844;2023-02-21T13:31:18;23.67;;;17.23;;
54201;SDS011;40108;53.152;5.844;2023-02-21T13:34:07;23.17;;;17.63;;
54201;SDS011;40108;53.152;5.844;2023-02-21T13:39:28;21.15;;;17.17;;
54201;SDS011;40108;53.152;5.844;2023-02-21T13:42:07;24.48;;;17.95;;
54201;SDS011;40108;53.152;5.844;2023-02-21T13:44:42;23.25;;;18.02;;
54201;SDS011;40108;53.152;5.844;2023-02-21T13:47:12;23.08;;;17.95;;
54201;SDS011;40108;53.152;5.844;2023-02-21T13:49:43;24.98;;;18.00;;
54201;SDS011;40108;53.152;5.844;2023-02-21T13:57:42;25.10;;;17.25;;
54201;SDS011;40108;53.152;5.844;2023-02-21T14:10:55;22.75;;;16.98;;
54201;SDS011;40108;53.152;5.844;2023-02-21T14:13:28;19.00;;;15.20;;
54201;SDS011;40108;53.152;5.844;2023-02-21T14:23:58;21.05;;;16.10;;
54201;SDS011;40108;53.152;5.844;2023-02-21T14:26:38;22.33;;;16.13;;
54201;SDS011;40108;53.152;5.844;2023-02-21T14:29:27;26.65;;;18.85;;
54201;SDS011;40108;53.152;5.844;2023-02-21T14:40:11;28.15;;;19.98;;
54201;SDS011;40108;53.152;5.844;2023-02-21T14:43:05;25.17;;;18.52;;
54201;SDS011;40108;53.152;5.844;2023-02-21T14:49:06;22.00;;;18.38;;
54201;SDS011;40108;53.152;5.844;2023-02-21T14:54:09;25.17;;;17.52;;
54201;SDS011;40108;53.152;5.844;2023-02-21T14:59:53;19.67;;;16.55;;
54201;SDS011;40108;53.152;5.844;2023-02-21T15:10:58;22.23;;;17.45;;
54201;SDS011;40108;53.152;5.844;2023-02-21T15:13:31;21.20;;;16.60;;
54201;SDS011;40108;53.152;5.844;2023-02-21T15:16:02;19.75;;;16.95;;
54201;SDS011;40108;53.152;5.844;2023-02-21T15:18:31;21.13;;;17.45;;
54201;SDS011;40108;53.152;5.844;2023-02-21T15:23:42;19.85;;;16.35;;
54201;SDS011;40108;53.152;5.844;2023-02-21T15:26:17;21.42;;;16.80;;
54201;SDS011;40108;53.152;5.844;2023-02-21T15:34:19;19.95;;;15.63;;
54201;SDS011;40108;53.152;5.844;2023-02-21T15:40:18;22.38;;;17.33;;
54201;SDS011;40108;53.152;5.844;2023-02-21T15:42:51;22.25;;;18.17;;
54201;SDS011;40108;53.152;5.844;2023-02-21T15:45:25;33.55;;;23.38;;
54201;SDS011;40108;53.152;5.844;2023-02-21T15:47:54;31.13;;;22.92;;
54201;SDS011;40108;53.152;5.844;2023-02-21T15:53:17;30.48;;;22.40;;
54201;SDS011;40108;53.152;5.844;2023-02-21T15:55:48;23.02;;;18.08;;
54201;SDS011;40108;53.152;5.844;2023-02-21T15:58:17;28.13;;;17.85;;
54201;SDS011;40108;53.152;5.844;2023-02-21T16:00:47;22.88;;;17.85;;
54201;SDS011;40108;53.152;5.844;2023-02-21T16:03:40;22.33;;;17.73;;
54201;SDS011;40108;53.152;5.844;2023-02-21T16:06:26;23.35;;;18.42;;
54201;SDS011;40108;53.152;5.844;2023-02-21T16:11:39;25.23;;;19.17;;
54201;SDS011;40108;53.152;5.844;2023-02-21T16:16:55;29.98;;;19.80;;
54201;SDS011;40108;53.152;5.844;2023-02-21T16:19:50;25.73;;;19.77;;
54201;SDS011;40108;53.152;5.844;2023-02-21T16:27:51;27.33;;;20.55;;
54201;SDS011;40108;53.152;5.844;2023-02-21T16:30:31;30.40;;;21.63;;
54201;SDS011;40108;53.152;5.844;2023-02-21T16:33:00;26.83;;;21.17;;
54201;SDS011;40108;53.152;5.844;2023-02-21T16:35:28;30.08;;;21.77;;
54201;SDS011;40108;53.152;5.844;2023-02-21T16:37:58;36.15;;;24.67;;
54201;SDS011;40108;53.152;5.844;2023-02-21T16:40:26;34.80;;;24.35;;
54201;SDS011;40108;53.152;5.844;2023-02-21T16:42:58;32.83;;;24.23;;
54201;SDS011;40108;53.152;5.844;2023-02-21T16:45:28;36.20;;;24.63;;
54201;SDS011;40108;53.152;5.844;2023-02-21T16:48:03;28.33;;;23.13;;
54201;SDS011;40108;53.152;5.844;2023-02-21T16:50:35;29.73;;;22.30;;
54201;SDS011;40108;53.152;5.844;2023-02-21T16:53:05;30.73;;;24.13;;
54201;SDS011;40108;53.152;5.844;2023-02-21T16:55:36;36.22;;;26.33;;
54201;SDS011;40108;53.152;5.844;2023-02-21T16:58:28;32.45;;;25.23;;
54201;SDS011;40108;53.152;5.844;2023-02-21T17:01:45;31.27;;;24.63;;
54201;SDS011;40108;53.152;5.844;2023-02-21T17:03:53;35.58;;;25.70;;
54201;SDS011;40108;53.152;5.844;2023-02-21T17:06:20;35.45;;;26.40;;
54201;SDS011;40108;53.152;5.844;2023-02-21T17:08:47;36.38;;;26.52;;
54201;SDS011;40108;53.152;5.844;2023-02-21T17:11:14;41.15;;;29.52;;
54201;SDS011;40108;53.152;5.844;2023-02-21T17:13:40;38.95;;;27.90;;
54201;SDS011;40108;53.152;5.844;2023-02-21T17:16:05;39.67;;;27.13;;
54201;SDS011;40108;53.152;5.844;2023-02-21T17:18:31;38.67;;;27.40;;
54201;SDS011;40108;53.152;5.844;2023-02-21T17:20:58;37.95;;;27.05;;
54201;SDS011;40108;53.152;5.844;2023-02-21T17:23:26;40.13;;;27.20;;
54201;SDS011;40108;53.152;5.844;2023-02-21T17:25:52;41.92;;;27.83;;
54201;SDS011;40108;53.152;5.844;2023-02-21T17:28:18;41.55;;;29.13;;
54201;SDS011;40108;53.152;5.844;2023-02-21T17:30:48;38.28;;;26.25;;
54201;SDS011;40108;53.152;5.844;2023-02-21T17:33:16;36.92;;;26.55;;
54201;SDS011;40108;53.152;5.844;2023-02-21T17:35:42;37.60;;;27.58;;
54201;SDS011;40108;53.152;5.844;2023-02-21T17:38:08;37.88;;;27.13;;
54201;SDS011;40108;53.152;5.844;2023-02-21T17:40:34;35.50;;;25.35;;
54201;SDS011;40108;53.152;5.844;2023-02-21T17:43:00;39.97;;;27.10;;
54201;SDS011;40108;53.152;5.844;2023-02-21T17:45:28;44.08;;;28.52;;
54201;SDS011;40108;53.152;5.844;2023-02-21T17:47:54;36.65;;;25.48;;
54201;SDS011;40108;53.152;5.844;2023-02-21T17:50:23;42.95;;;27.30;;
54201;SDS011;40108;53.152;5.844;2023-02-21T17:52:49;40.42;;;27.25;;
54201;SDS011;40108;53.152;5.844;2023-02-21T17:55:20;40.78;;;27.27;;
54201;SDS011;40108;53.152;5.844;2023-02-21T17:57:49;39.10;;;26.60;;
54201;SDS011;40108;53.152;5.844;2023-02-21T18:04:03;43.85;;;28.15;;
54201;SDS011;40108;53.152;5.844;2023-02-21T18:06:48;43.03;;;26.80;;
54201;SDS011;40108;53.152;5.844;2023-02-21T18:16:18;47.00;;;29.77;;